Time;durP1;ratioP1;P1;durP2;ratioP2;P2;SDS_P1;SDS_P2;PMS_P1;PMS_P2;Temp;Humidity;BMP_temperature;BMP_pressure;BME280_temperature;BME280_humidity;BME280_pressure;Samples;Min_cycle;Max_cycle;Signal;HPM_P1;HPM_P2
2021/03/24 00:00:24;;;;;;;35.72;17.73;;;;;;;1.67;71.99;96149.34;5031197;28;20052;-65
2021/03/24 00:02:50;;;;;;;35.13;17.52;;;;;;;1.51;71.87;96127.19;5029488;28;20389;-63
2021/03/24 00:05:18;;;;;;;32.15;16.77;;;;;;;1.62;71.81;96147.41;5030921;28;20140;-65
2021/03/24 00:07:44;;;;;;;38.10;17.83;;;;;;;1.53;72.23;96144.28;5030664;28;20594;-64
2021/03/24 00:10:11;;;;;;;38.70;18.23;;;;;;;1.60;72.15;96151.28;5032712;28;20026;-65
2021/03/24 00:12:38;;;;;;;39.10;17.58;;;;;;;1.59;72.24;96158.34;5030455;28;20427;-63
2021/03/24 00:15:06;;;;;;;37.92;18.50;;;;;;;1.59;72.19;96145.25;5030617;28;20102;-66
2021/03/24 00:17:32;;;;;;;40.70;17.98;;;;;;;1.59;72.45;96144.41;5030305;28;20037;-64
2021/03/24 00:19:57;;;;;;;43.13;19.48;;;;;;;1.52;72.53;96136.66;5029292;28;20424;-65
2021/03/24 00:22:23;;;;;;;43.40;19.08;;;;;;;1.50;72.86;96126.38;5032350;28;20060;-65
2021/03/24 00:24:49;;;;;;;39.55;18.88;;;;;;;1.60;72.71;96143.41;5030562;28;20064;-65
2021/03/24 00:27:14;;;;;;;39.28;18.88;;;;;;;1.32;72.72;96094.16;5030075;28;20045;-64
2021/03/24 00:29:39;;;;;;;39.45;18.48;;;;;;;1.49;72.80;96119.53;5030174;28;20495;-63
2021/03/24 00:32:05;;;;;;;41.88;18.80;;;;;;;1.45;73.01;96117.59;5030257;28;20063;-65
2021/03/24 00:34:31;;;;;;;43.70;20.02;;;;;;;1.42;72.83;96110.94;5032087;28;20483;-63
2021/03/24 00:36:56;;;;;;;45.35;20.27;;;;;;;1.49;72.76;96127.41;5029986;28;20088;-63
2021/03/24 00:39:21;;;;;;;40.63;19.00;;;;;;;1.42;73.02;96121.44;5029814;28;20487;-64
2021/03/24 00:41:47;;;;;;;51.75;21.08;;;;;;;1.35;72.72;96112.88;5028636;28;20056;-63
2021/03/24 00:44:13;;;;;;;40.78;19.92;;;;;;;1.14;72.96;96087.94;5030126;28;20037;-64
2021/03/24 00:46:38;;;;;;;45.10;20.23;;;;;;;1.29;73.07;96103.28;5030052;28;20051;-65
2021/03/24 00:49:04;;;;;;;57.70;21.20;;;;;;;1.39;73.05;96127.16;5031511;28;20030;-63
2021/03/24 00:51:29;;;;;;;47.97;19.92;;;;;;;1.33;73.25;96114.09;5029659;28;20049;-63
2021/03/24 00:53:54;;;;;;;41.25;18.52;;;;;;;1.30;73.32;96110.13;5029906;28;20045;-64
2021/03/24 00:56:20;;;;;;;44.17;19.33;;;;;;;1.16;73.49;96085.88;5029853;28;20033;-64
2021/03/24 00:58:45;;;;;;;35.30;18.63;;;;;;;1.32;73.51;96104.66;5029542;28;20721;-63
2021/03/24 01:01:10;;;;;;;43.63;19.42;;;;;;;1.43;73.88;96119.63;5031563;28;20034;-63
2021/03/24 01:03:37;;;;;;;42.83;19.10;;;;;;;1.41;73.39;96111.97;5029616;28;20047;-65
2021/03/24 01:06:03;;;;;;;43.15;18.77;;;;;;;1.14;73.57;96064.34;5029704;28;20041;-63
2021/03/24 01:08:28;;;;;;;38.33;18.83;;;;;;;1.18;73.70;96073.38;5029411;28;20046;-63
2021/03/24 01:10:56;;;;;;;49.47;20.98;;;;;;;1.21;73.71;96072.91;5029587;28;20120;-64
2021/03/24 01:13:23;;;;;;;46.35;20.67;;;;;;;1.41;73.70;96105.94;5029768;28;20033;-65
2021/03/24 01:15:50;;;;;;;33.33;17.73;;;;;;;1.38;73.62;96107.16;5029439;28;20045;-64
2021/03/24 01:18:16;;;;;;;46.97;20.98;;;;;;;1.38;73.87;96103.75;5029138;28;20103;-65
2021/03/24 01:20:42;;;;;;;45.28;20.33;;;;;;;1.26;74.04;96091.41;5029284;28;20068;-63
2021/03/24 01:23:08;;;;;;;40.88;19.65;;;;;;;1.28;73.72;96089.38;5029093;28;20049;-63
2021/03/24 01:25:35;;;;;;;41.45;19.63;;;;;;;1.36;73.99;96101.34;5031165;28;20029;-64
2021/03/24 01:28:04;;;;;;;50.78;21.75;;;;;;;1.37;73.96;96091.66;5029359;28;20038;-64
2021/03/24 01:30:31;;;;;;;44.47;20.50;;;;;;;1.23;74.00;96077.97;5029162;28;20061;-64
2021/03/24 01:32:57;;;;;;;36.58;18.65;;;;;;;1.34;73.99;96100.00;5028972;28;20574;-63
2021/03/24 01:35:22;;;;;;;47.50;20.67;;;;;;;1.26;74.14;96085.38;5029066;28;20125;-63
2021/03/24 01:37:48;;;;;;;46.58;20.77;;;;;;;1.32;73.92;96100.19;5028850;28;20053;-63
2021/03/24 01:40:25;;;;;;;40.65;19.67;;;;;;;1.30;74.19;96097.00;5031038;28;20388;-64
2021/03/24 01:42:56;;;;;;;40.20;18.17;;;;;;;1.29;74.36;96095.41;5028351;28;20565;-64
2021/03/24 01:45:21;;;;;;;44.20;19.65;;;;;;;1.29;74.31;96098.03;5027748;28;20514;-64
2021/03/24 01:47:47;;;;;;;46.40;19.35;;;;;;;1.29;74.40;96100.66;5028607;28;20030;-63
2021/03/24 01:50:16;;;;;;;49.05;21.55;;;;;;;1.15;74.35;96076.44;5028846;28;20045;-64
2021/03/24 01:52:42;;;;;;;47.03;20.48;;;;;;;0.99;74.52;96050.84;5028941;28;20025;-63
2021/03/24 01:55:08;;;;;;;49.85;21.38;;;;;;;1.13;74.33;96072.44;5030700;28;20572;-64
2021/03/24 01:57:37;;;;;;;49.22;20.98;;;;;;;0.96;74.53;96040.81;5028322;28;20057;-64
2021/03/24 02:00:11;;;;;;;42.13;18.35;;;;;;;1.25;74.66;96094.25;5028878;28;20048;-64
2021/03/24 02:02:37;;;;;;;40.72;18.88;;;;;;;0.92;74.55;96042.25;5028532;28;20446;-64
2021/03/24 02:05:03;;;;;;;35.45;18.73;;;;;;;1.15;74.70;96071.19;5028946;28;20034;-64
2021/03/24 02:07:36;;;;;;;58.00;21.52;;;;;;;1.12;74.55;96060.34;5030468;28;20527;-63
2021/03/24 02:10:08;;;;;;;48.88;20.38;;;;;;;1.10;74.54;96071.06;5029306;28;20121;-64
2021/03/24 02:12:40;;;;;;;;;;;;;;;1.19;74.59;96076.81;5029056;28;20062;-63
2021/03/24 02:15:10;;;;;;;49.72;21.48;;;;;;;1.03;74.64;96059.88;5028838;28;19963;-63
2021/03/24 02:17:40;;;;;;;49.25;20.98;;;;;;;0.95;74.89;96045.25;5028471;28;20025;-63
2021/03/24 02:20:39;;;;;;;55.60;21.90;;;;;;;1.17;75.51;96084.06;5028602;28;20026;-63
2021/03/24 02:23:26;;;;;;;52.15;20.90;;;;;;;1.18;75.11;96085.69;5027167;28;20045;-63
2021/03/24 02:26:01;;;;;;;46.33;19.58;;;;;;;1.16;75.12;96085.88;5028673;28;20120;-64
2021/03/24 02:28:27;;;;;;;49.05;21.17;;;;;;;0.87;75.08;96045.56;5030169;28;20036;-63
2021/03/24 02:30:52;;;;;;;45.40;20.58;;;;;;;0.92;75.14;96050.13;5027249;28;20457;-64
2021/03/24 02:33:31;;;;;;;42.90;19.55;;;;;;;1.10;75.36;96078.13;5028127;28;20052;-63
2021/03/24 02:36:02;;;;;;;45.38;19.67;;;;;;;1.13;75.10;96082.94;5027044;28;20507;-64
2021/03/24 02:38:30;;;;;;;54.00;22.40;;;;;;;0.77;75.10;96032.97;5028243;28;20052;-63
2021/03/24 02:40:57;;;;;;;54.80;22.00;;;;;;;1.06;75.39;96083.00;5028426;28;20041;-63
2021/03/24 02:43:26;;;;;;;57.25;21.77;;;;;;;0.88;75.31;96055.00;5028766;28;20056;-63
2021/03/24 02:45:53;;;;;;;47.58;20.48;;;;;;;0.87;75.33;96050.81;5028371;28;20046;-64
2021/03/24 02:48:27;;;;;;;57.58;22.60;;;;;;;1.02;75.31;96084.44;5027911;28;20068;-64
2021/03/24 02:50:55;;;;;;;45.97;20.27;;;;;;;1.04;75.57;96077.97;5028229;28;20041;-63
2021/03/24 02:53:22;;;;;;;50.83;21.58;;;;;;;1.07;75.37;96086.41;5026753;28;20041;-65
2021/03/24 02:55:48;;;;;;;55.42;23.58;;;;;;;1.09;75.76;96084.38;5030786;28;20033;-63
2021/03/24 02:58:13;;;;;;;62.75;23.92;;;;;;;0.97;75.75;96069.41;5033703;28;20507;-64
2021/03/24 03:00:40;;;;;;;45.97;20.42;;;;;;;1.06;75.56;96084.81;5032054;28;20041;-63
2021/03/24 03:03:28;;;;;;;53.55;21.50;;;;;;;0.99;75.39;96085.69;5031768;28;20041;-62
2021/03/24 03:05:55;;;;;;;53.83;23.08;;;;;;;1.01;75.50;96086.28;5030590;28;20499;-64
2021/03/24 03:08:30;;;;;;;47.20;21.60;;;;;;;0.88;75.85;96065.50;5031464;28;20037;-63
2021/03/24 03:11:03;;;;;;;53.00;22.30;;;;;;;0.90;75.64;96071.28;5031634;28;20537;-65
2021/03/24 03:13:36;;;;;;;65.40;25.17;;;;;;;0.97;75.54;96086.94;5032545;28;20104;-63
2021/03/24 03:16:22;;;;;;;48.38;21.13;;;;;;;0.96;75.84;96085.34;5047096;28;20054;-63
2021/03/24 03:18:56;;;;;;;57.83;22.30;;;;;;;0.75;75.91;96063.81;5031425;28;20487;-63
2021/03/24 03:21:43;;;;;;;52.45;23.35;;;;;;;0.87;75.84;96077.00;5031397;28;20037;-63
2021/03/24 03:24:10;;;;;;;63.88;23.95;;;;;;;0.93;75.79;96091.81;5031597;28;20426;-63
2021/03/24 03:26:39;;;;;;;64.63;23.10;;;;;;;0.93;75.90;96094.44;5031433;28;20095;-62
2021/03/24 03:29:13;;;;;;;57.03;23.23;;;;;;;0.75;75.75;96069.06;5030875;28;20152;-64
2021/03/24 03:31:41;;;;;;;56.97;23.77;;;;;;;0.91;75.87;96101.72;5031211;28;20108;-63
2021/03/24 03:34:12;;;;;;;58.85;22.35;;;;;;;0.84;76.04;96081.88;5033228;28;20467;-64
2021/03/24 03:36:40;;;;;;;60.95;24.83;;;;;;;0.66;75.95;96059.88;5031342;28;20109;-63
2021/03/24 03:39:10;;;;;;;68.65;24.92;;;;;;;0.90;76.32;96101.94;5029733;28;20041;-63
2021/03/24 03:41:36;;;;;;;61.50;24.45;;;;;;;0.78;75.98;96086.94;5029601;28;20581;-62
2021/03/24 03:44:05;;;;;;;65.00;24.38;;;;;;;0.81;75.71;96088.31;5031117;28;20041;-63
2021/03/24 03:46:34;;;;;;;70.15;24.92;;;;;;;0.89;75.71;96095.09;5033013;28;20029;-63
2021/03/24 03:49:00;;;;;;;62.85;22.98;;;;;;;0.89;75.73;96098.50;5031467;28;20045;-63
2021/03/24 03:51:39;;;;;;;66.22;25.63;;;;;;;0.85;76.05;96094.72;5030748;28;20391;-64
2021/03/24 03:54:17;;;;;;;59.58;24.05;;;;;;;0.81;75.97;96093.56;5030975;28;20491;-63
2021/03/24 03:57:07;;;;;;;57.28;22.65;;;;;;;0.89;75.86;96102.97;5029498;28;20530;-64
2021/03/24 03:59:35;;;;;;;54.38;23.08;;;;;;;0.87;76.07;96099.75;5031065;28;20593;-62
2021/03/24 04:02:03;;;;;;;70.00;25.63;;;;;;;0.87;75.94;96103.19;5030932;28;20396;-63
2021/03/24 04:04:39;;;;;;;62.95;23.92;;;;;;;0.77;76.18;96095.03;5031127;28;20040;-63
2021/03/24 04:07:13;;;;;;;57.55;23.75;;;;;;;0.91;76.07;96109.56;5030946;28;20129;-63
2021/03/24 04:09:39;;;;;;;58.08;24.55;;;;;;;0.88;75.95;96104.78;5030963;28;20064;-63
2021/03/24 04:12:10;;;;;;;63.95;24.25;;;;;;;0.82;76.21;96091.75;5030711;28;20041;-64
2021/03/24 04:14:37;;;;;;;58.92;23.20;;;;;;;0.99;76.42;96113.72;5029366;28;20061;-64
2021/03/24 04:17:04;;;;;;;68.90;26.05;;;;;;;0.90;76.30;96091.47;5029038;28;20128;-63
2021/03/24 04:19:34;;;;;;;58.40;24.38;;;;;;;1.14;76.21;96119.38;5031164;28;20435;-66
2021/03/24 04:22:02;;;;;;;55.92;23.77;;;;;;;1.01;76.34;96075.00;5029115;28;20060;-64
2021/03/24 04:24:32;;;;;;;56.17;22.85;;;;;;;1.22;76.17;96100.72;5030536;28;20044;-62
2021/03/24 04:27:00;;;;;;;54.65;22.75;;;;;;;1.38;76.06;96114.22;5030142;28;20136;-63
2021/03/24 04:29:43;;;;;;;51.67;21.52;;;;;;;1.19;75.38;96080.22;5030499;28;20562;-64
2021/03/24 04:32:10;;;;;;;55.35;24.58;;;;;;;1.43;75.37;96114.38;5030248;28;20076;-63
2021/03/24 04:34:37;;;;;;;55.88;22.75;;;;;;;1.40;75.18;96105.16;5029134;28;20175;-64
2021/03/24 04:37:14;;;;;;;53.15;23.02;;;;;;;1.27;74.98;96105.31;5032078;28;20095;-64
2021/03/24 04:39:53;;;;;;;51.50;21.25;;;;;;;1.28;75.29;96105.09;5030477;28;20034;-64
2021/03/24 04:42:34;;;;;;;53.20;21.30;;;;;;;1.22;75.21;96118.28;5030095;28;20052;-64
2021/03/24 04:45:10;;;;;;;61.35;24.05;;;;;;;1.11;75.07;96111.16;5028941;28;20047;-63
2021/03/24 04:47:38;;;;;;;50.70;22.73;;;;;;;0.75;75.06;96068.25;5029939;28;20121;-63
2021/03/24 04:50:20;;;;;;;76.88;25.73;;;;;;;0.94;75.24;96109.13;5028670;28;20041;-64
2021/03/24 04:52:46;;;;;;;52.55;22.33;;;;;;;0.70;74.97;96079.38;5029774;28;20490;-63
2021/03/24 04:55:16;;;;;;;52.50;22.23;;;;;;;0.78;75.09;96091.41;5030463;28;20112;-63
2021/03/24 04:57:43;;;;;;;53.53;23.35;;;;;;;0.66;75.29;96075.59;5029566;28;20083;-63
2021/03/24 05:00:31;;;;;;;57.67;25.40;;;;;;;0.88;75.31;96119.69;5029802;28;20038;-63
2021/03/24 05:03:03;;;;;;;61.88;24.42;;;;;;;0.84;75.38;96121.16;5029650;28;20040;-64
2021/03/24 05:05:30;;;;;;;55.67;23.98;;;;;;;0.76;75.28;96128.25;5028468;28;20376;-62
2021/03/24 05:08:15;;;;;;;53.75;22.45;;;;;;;0.81;75.53;96125.00;5029897;28;20033;-63
2021/03/24 05:10:41;;;;;;;49.22;22.52;;;;;;;0.79;75.67;96121.81;5028328;28;20029;-63
2021/03/24 05:13:16;;;;;;;42.10;20.23;;;;;;;0.82;75.54;96124.00;5029807;28;20360;-63
2021/03/24 05:15:51;;;;;;;50.55;22.85;;;;;;;0.85;75.76;96130.59;5028140;28;20051;-64
2021/03/24 05:18:17;;;;;;;52.58;20.83;;;;;;;0.86;75.79;96125.13;5027290;28;20038;-64
2021/03/24 05:20:51;;;;;;;57.75;22.80;;;;;;;0.68;75.74;96098.97;5029286;28;20137;-64
2021/03/24 05:23:19;;;;;;;57.60;21.35;;;;;;;0.88;75.54;96133.59;5027662;28;20060;-63
2021/03/24 05:25:46;;;;;;;39.65;20.23;;;;;;;0.73;75.24;96102.53;5029231;28;20559;-64
2021/03/24 05:28:19;;;;;;;56.53;21.80;;;;;;;0.75;75.64;96104.91;5029293;28;20071;-63
2021/03/24 05:31:17;;;;;;;41.60;20.25;;;;;;;0.96;75.43;96138.53;5027812;28;20076;-64
2021/03/24 05:33:51;;;;;;;36.55;18.25;;;;;;;1.01;75.62;96130.81;5019859;28;20041;-64
2021/03/24 05:36:21;;;;;;;40.03;18.58;;;;;;;1.08;75.50;96141.22;5029413;28;20048;-64
2021/03/24 05:38:49;;;;;;;35.40;17.90;;;;;;;0.85;75.40;96105.22;5028458;28;20553;-63
2021/03/24 05:41:35;;;;;;;44.55;19.75;;;;;;;1.21;75.61;96135.03;5027209;28;20053;-64
2021/03/24 05:44:10;;;;;;;38.28;19.13;;;;;;;1.26;75.38;96129.91;5029027;28;20124;-65
2021/03/24 05:47:26;;;;;;;38.97;17.88;;;;;;;1.30;74.98;96128.47;5027723;28;20033;-65
2021/03/24 05:50:13;;;;;;;41.03;19.15;;;;;;;1.40;75.17;96136.59;5010441;28;20073;-65
2021/03/24 05:52:51;;;;;;;35.10;17.77;;;;;;;1.46;75.11;96127.84;5028557;28;20037;-64
2021/03/24 05:55:51;;;;;;;29.70;16.60;;;;;;;1.53;75.10;96133.78;5030566;28;20043;-65
2021/03/24 05:58:39;;;;;;;30.00;15.68;;;;;;;1.63;74.41;96133.25;5026437;28;20160;-63
2021/03/24 06:01:13;;;;;;;28.42;15.27;;;;;;;1.48;74.59;96104.81;5029079;28;20045;-65
2021/03/24 06:03:55;;;;;;;32.97;16.52;;;;;;;1.80;74.26;96141.31;5028393;28;20045;-64
2021/03/24 06:06:21;;;;;;;;;;;;;;;1.86;73.74;96135.16;5027844;28;20123;-63
2021/03/24 06:08:55;;;;;;;35.28;15.25;;;;;;;1.94;73.88;96140.06;5028238;28;20382;-63
2021/03/24 06:11:21;;;;;;;37.33;17.73;;;;;;;1.99;73.74;96139.41;5026800;28;20065;-65
2021/03/24 06:14:15;;;;;;;35.10;17.15;;;;;;;1.98;74.07;96115.00;5026865;28;20034;-65
2021/03/24 06:17:14;;;;;;;30.15;16.75;;;;;;;2.19;73.24;96139.91;5028362;28;20021;-64
2021/03/24 06:20:14;;;;;;;32.28;17.02;;;;;;;2.14;73.60;96120.59;5028046;28;20049;-64
2021/03/24 06:23:15;;;;;;;28.95;15.63;;;;;;;2.40;73.11;96138.56;5027934;28;20022;-63
2021/03/24 06:25:41;;;;;;;33.22;16.73;;;;;;;2.50;72.95;96135.38;5016127;28;20120;-63
2021/03/24 06:28:49;;;;;;;29.23;16.00;;;;;;;2.58;72.97;96130.56;5031051;28;20033;-63
2021/03/24 06:31:41;;;;;;;26.30;16.92;;;;;;;2.69;72.78;96136.06;5032306;28;20139;-63
2021/03/24 06:34:22;;;;;;;28.35;15.32;;;;;;;2.78;72.82;96132.84;5031213;28;20050;-64
2021/03/24 06:37:06;;;;;;;28.05;15.45;;;;;;;2.88;72.82;96132.28;5031913;28;20045;-63
2021/03/24 06:40:08;;;;;;;24.02;14.82;;;;;;;2.99;72.21;96134.06;5032411;28;20034;-64
2021/03/24 06:42:49;;;;;;;30.45;14.63;;;;;;;3.11;72.16;96140.09;5032215;28;20103;-64
2021/03/24 06:45:32;;;;;;;22.20;14.48;;;;;;;3.08;72.37;96114.28;5032413;28;20045;-64
2021/03/24 06:48:28;;;;;;;25.58;15.10;;;;;;;3.34;72.02;96138.47;5030628;28;20041;-63
2021/03/24 06:51:21;;;;;;;23.05;13.63;;;;;;;3.40;71.74;96129.63;5031891;28;20040;-62
2021/03/24 06:54:08;;;;;;;19.27;13.38;;;;;;;3.58;71.86;96145.25;5032098;28;20068;-62
2021/03/24 06:56:36;;;;;;;24.42;13.25;;;;;;;3.67;71.17;96140.38;5030308;28;20493;-62
2021/03/24 06:59:17;;;;;;;22.08;12.85;;;;;;;3.81;70.89;96140.91;5027160;28;20443;-62
2021/03/24 07:01:49;;;;;;;23.55;13.52;;;;;;;3.95;70.54;96147.47;5044427;28;20398;-61
2021/03/24 07:05:08;;;;;;;20.10;13.90;;;;;;;4.07;70.22;96150.03;5053769;28;20489;-61
2021/03/24 07:07:52;;;;;;;19.98;11.70;;;;;;;4.18;69.84;96149.97;4971130;28;20047;-60
2021/03/24 07:10:36;;;;;;;19.17;11.27;;;;;;;4.17;69.39;96129.16;5045715;28;20076;-60
2021/03/24 07:13:36;;;;;;;22.50;12.48;;;;;;;4.44;69.20;96150.38;5050631;28;20044;-60
2021/03/24 07:16:20;;;;;;;20.90;12.98;;;;;;;4.56;69.24;96156.38;5052082;28;20049;-60
2021/03/24 07:19:02;;;;;;;23.67;12.55;;;;;;;4.65;69.02;96148.84;5051520;28;20041;-60
2021/03/24 07:21:58;;;;;;;19.02;11.05;;;;;;;4.81;68.20;96155.94;5051235;28;20051;-60
2021/03/24 07:24:55;;;;;;;17.55;11.38;;;;;;;4.92;67.76;96154.25;5051375;28;20053;-60
2021/03/24 07:27:26;;;;;;;20.08;12.13;;;;;;;5.03;67.58;96161.25;5050912;28;20041;-61
2021/03/24 07:30:11;;;;;;;16.80;11.07;;;;;;;5.11;67.30;96166.09;5066617;28;20034;-61
2021/03/24 07:32:50;;;;;;;16.40;10.95;;;;;;;5.23;66.81;96160.72;5050957;28;20079;-61
2021/03/24 07:35:19;;;;;;;15.40;10.25;;;;;;;5.36;66.47;96167.47;5049731;28;20596;-61
2021/03/24 07:38:21;;;;;;;18.63;10.88;;;;;;;5.50;66.14;96173.97;5051011;28;20021;-60
2021/03/24 07:41:22;;;;;;;16.77;9.98;;;;;;;5.61;65.27;96170.41;5050159;28;20109;-61
2021/03/24 07:44:19;;;;;;;15.02;10.20;;;;;;;5.74;65.02;96177.97;5008672;28;20088;-61
2021/03/24 07:47:05;;;;;;;10.77;9.00;;;;;;;5.93;65.29;96170.50;5049392;28;20032;-63
2021/03/24 07:49:54;;;;;;;14.75;9.25;;;;;;;6.24;64.37;96168.16;5053083;28;20025;-63
2021/03/24 07:52:38;;;;;;;14.75;10.27;;;;;;;6.39;63.31;96176.22;5051126;28;20044;-62
2021/03/24 07:55:15;;;;;;;11.93;9.18;;;;;;;6.58;63.24;96175.84;5067380;28;20098;-65
2021/03/24 07:57:58;;;;;;;11.85;8.90;;;;;;;6.68;61.81;96160.06;5050227;28;20424;-63
2021/03/24 08:00:47;;;;;;;11.63;8.38;;;;;;;6.44;59.75;96178.09;5050730;28;20437;-62
2021/03/24 08:03:37;;;;;;;10.95;9.00;;;;;;;6.64;59.74;96175.63;5050351;28;20044;-62
2021/03/24 08:06:14;;;;;;;12.75;7.47;;;;;;;6.64;59.89;96174.84;5050912;28;20124;-64
2021/03/24 08:09:19;;;;;;;20.95;9.18;;;;;;;6.73;59.38;96152.97;5033214;28;20057;-62
2021/03/24 08:12:06;;;;;;;15.35;8.65;;;;;;;7.02;59.76;96171.13;5030343;28;20116;-64
2021/03/24 08:14:51;;;;;;;11.40;7.90;;;;;;;6.99;59.24;96148.63;5029441;28;20029;-64
2021/03/24 08:17:32;;;;;;;12.82;7.47;;;;;;;7.12;58.30;96155.31;5030452;28;20549;-61
2021/03/24 08:20:26;;;;;;;11.32;8.13;;;;;;;6.39;59.39;96175.44;5030534;28;20030;-63
2021/03/24 08:23:23;;;;;;;11.75;8.07;;;;;;;6.45;59.63;96134.78;5028985;28;20032;-62
2021/03/24 08:26:10;;;;;;;11.25;8.25;;;;;;;6.89;58.22;96164.44;5030427;28;20028;-63
2021/03/24 08:28:55;;;;;;;15.38;7.88;;;;;;;7.17;58.79;96151.91;5030130;28;20025;-62
2021/03/24 08:31:40;;;;;;;11.55;8.57;;;;;;;7.27;58.16;96147.47;5032165;28;20022;-64
2021/03/24 08:34:46;;;;;;;10.20;7.75;;;;;;;7.42;57.76;96154.69;5030589;28;20049;-61
2021/03/24 08:37:38;;;;;;;15.82;6.63;;;;;;;6.67;56.98;96126.75;4988520;28;20097;-61
2021/03/24 08:40:06;;;;;;;9.90;6.43;;;;;;;6.58;58.02;96144.91;5030608;28;20483;-62
2021/03/24 08:42:40;;;;;;;13.80;7.22;;;;;;;6.71;57.67;96159.56;5029536;28;20073;-67
2021/03/24 08:45:15;;;;;;;15.85;7.03;;;;;;;7.35;57.17;96150.66;5031055;28;20175;-63
2021/03/24 08:47:41;;;;;;;21.13;7.05;;;;;;;6.89;56.43;96113.38;5029724;28;20040;-64
2021/03/24 08:50:15;;;;;;;8.90;6.30;;;;;;;6.59;56.90;96140.44;5029100;28;20029;-61
2021/03/24 08:53:04;;;;;;;16.13;6.38;;;;;;;7.13;56.10;96130.44;5030823;28;20108;-62
2021/03/24 08:55:43;;;;;;;9.55;5.80;;;;;;;7.55;55.97;96138.28;5031631;28;20079;-61
2021/03/24 08:58:44;;;;;;;16.52;6.80;;;;;;;7.82;55.28;96132.78;5029665;28;20034;-59
2021/03/24 09:01:44;;;;;;;11.25;6.13;;;;;;;8.04;55.14;96129.94;5026450;28;20043;-64
2021/03/24 09:04:37;;;;;;;13.40;7.05;;;;;;;8.25;54.78;96133.41;5031320;28;20045;-63
2021/03/24 09:07:21;;;;;;;17.20;6.97;;;;;;;8.39;54.03;96131.03;5030894;28;20404;-63
2021/03/24 09:10:14;;;;;;;10.00;6.70;;;;;;;8.50;53.04;96126.56;5029465;28;20045;-63
2021/03/24 09:12:49;;;;;;;14.23;8.82;;;;;;;7.42;53.34;96106.19;5028845;28;20048;-64
2021/03/24 09:15:34;;;;;;;10.60;7.97;;;;;;;7.30;54.20;96127.59;5030397;28;20050;-64
2021/03/24 09:18:14;;;;;;;17.10;9.07;;;;;;;7.93;53.09;96135.47;5029206;28;20034;-63
2021/03/24 09:20:58;;;;;;;10.55;8.18;;;;;;;7.64;53.57;96135.94;5030036;28;20468;-64
2021/03/24 09:23:35;;;;;;;13.05;8.05;;;;;;;8.20;52.93;96116.72;5030182;28;20410;-63
2021/03/24 09:26:20;;;;;;;15.80;8.48;;;;;;;8.56;52.31;96139.53;5030465;28;20067;-63
2021/03/24 09:28:54;;;;;;;21.13;9.00;;;;;;;8.76;52.60;96135.28;5030013;28;20452;-64
2021/03/24 09:31:31;;;;;;;15.07;8.80;;;;;;;8.71;51.57;96098.16;5031800;28;20022;-61
2021/03/24 09:33:58;;;;;;;17.83;9.05;;;;;;;8.19;52.13;96123.88;5030125;28;20068;-62
2021/03/24 09:36:39;;;;;;;17.75;10.45;;;;;;;8.87;51.39;96130.75;5030153;28;20063;-64
2021/03/24 09:39:28;;;;;;;15.75;10.60;;;;;;;8.13;51.53;96101.03;5030013;28;20064;-62
2021/03/24 09:42:03;;;;;;;15.77;9.82;;;;;;;8.28;52.24;96137.38;5034576;28;20038;-64
2021/03/24 09:44:37;;;;;;;13.32;9.93;;;;;;;8.40;51.97;96126.56;5030134;28;20451;-64
2021/03/24 09:47:18;;;;;;;17.13;9.85;;;;;;;8.99;51.48;96125.94;5029908;28;20111;-62
2021/03/24 09:49:52;;;;;;;17.95;10.65;;;;;;;8.97;50.39;96120.13;5029709;28;20030;-64
2021/03/24 09:52:29;;;;;;;20.75;11.25;;;;;;;8.83;49.64;96094.13;5030480;28;20030;-63
2021/03/24 09:55:03;;;;;;;19.77;10.63;;;;;;;9.35;50.26;96116.00;5028497;28;20050;-62
2021/03/24 09:57:51;;;;;;;23.55;11.40;;;;;;;9.64;49.45;96113.47;5028214;28;20050;-63
2021/03/24 10:00:19;;;;;;;11.93;10.15;;;;;;;9.30;48.25;96100.88;5029984;28;20056;-64
2021/03/24 10:02:53;;;;;;;15.98;9.75;;;;;;;9.51;48.96;96109.56;5029305;28;20029;-62
2021/03/24 10:05:28;;;;;;;16.98;10.25;;;;;;;9.62;48.22;96103.16;5028302;28;20076;-64
2021/03/24 10:08:08;;;;;;;12.32;9.20;;;;;;;9.11;48.91;96084.78;5029256;28;20079;-64
2021/03/24 10:10:36;;;;;;;13.00;9.25;;;;;;;9.33;48.63;96099.56;5030461;28;20104;-62
2021/03/24 10:13:25;;;;;;;13.32;8.40;;;;;;;8.13;51.12;96092.31;5030071;28;20041;-65
2021/03/24 10:16:01;;;;;;;10.68;8.45;;;;;;;8.93;49.66;96076.59;5028169;28;20037;-64
2021/03/24 10:18:33;;;;;;;19.38;9.00;;;;;;;9.19;49.27;96026.88;5027897;28;20073;-63
2021/03/24 10:21:04;;;;;;;16.63;9.35;;;;;;;9.28;49.35;96057.88;5029112;28;20065;-64
2021/03/24 10:23:45;;;;;;;15.75;8.90;;;;;;;9.33;49.32;96094.25;5027898;28;20029;-64
2021/03/24 10:26:32;;;;;;;15.77;9.90;;;;;;;9.05;49.41;96059.28;5029686;28;20607;-65
2021/03/24 10:29:08;;;;;;;13.32;9.10;;;;;;;9.21;49.20;96088.44;5027986;28;20081;-66
2021/03/24 10:31:39;;;;;;;11.10;9.40;;;;;;;9.64;48.68;96066.47;5031161;28;20025;-65
2021/03/24 10:34:11;;;;;;;12.82;8.35;;;;;;;9.90;47.79;96077.72;5028543;28;20041;-65
2021/03/24 10:36:56;;;;;;;14.43;8.80;;;;;;;10.24;47.46;96063.69;5029243;28;20483;-65
2021/03/24 10:39:37;;;;;;;14.52;8.95;;;;;;;10.46;47.40;96070.41;5028974;28;20660;-66
2021/03/24 10:42:28;;;;;;;12.70;9.82;;;;;;;10.60;47.79;96066.03;5027896;28;20113;-65
2021/03/24 10:45:20;;;;;;;17.77;9.02;;;;;;;10.58;46.37;96068.94;5028993;28;20053;-67
2021/03/24 10:47:53;;;;;;;13.80;9.77;;;;;;;9.34;49.06;96038.22;5026117;28;20076;-79
2021/03/24 10:50:36;;;;;;;12.40;9.57;;;;;;;9.95;47.69;96065.47;5029081;28;20045;-62
2021/03/24 10:53:13;;;;;;;12.15;9.05;;;;;;;9.18;50.13;96067.75;5028947;28;20507;-66
2021/03/24 10:55:41;;;;;;;15.93;9.23;;;;;;;9.29;49.72;96067.44;5029230;28;20593;-64
2021/03/24 10:58:36;;;;;;;14.80;9.60;;;;;;;9.56;48.80;96055.63;5030860;28;20025;-68
2021/03/24 11:01:13;;;;;;;16.08;10.75;;;;;;;9.44;49.83;96060.47;5029608;28;20112;-63
2021/03/24 11:04:01;;;;;;;11.80;9.60;;;;;;;9.79;48.89;96052.28;5029132;28;20506;-63
2021/03/24 11:07:25;;;;;;;17.88;8.88;;;;;;;9.51;49.34;96058.28;5028932;28;20037;-63
2021/03/24 11:10:25;;;;;;;12.70;9.95;;;;;;;9.76;48.11;96068.78;4990310;28;20795;-64
2021/03/24 11:12:57;;;;;;;15.93;11.13;;;;;;;9.87;47.85;96029.63;5027466;28;20512;-66
2021/03/24 11:15:30;;;;;;;16.88;10.50;;;;;;;9.70;48.55;96058.47;5030520;28;20041;-64
2021/03/24 11:18:05;;;;;;;16.83;11.27;;;;;;;10.26;48.09;96050.91;5032637;28;20037;-64
2021/03/24 11:20:43;;;;;;;13.85;11.30;;;;;;;10.54;47.04;96046.63;5030958;28;20052;-62
2021/03/24 11:23:13;;;;;;;12.77;10.88;;;;;;;10.59;46.45;96032.50;5032475;28;20068;-63
2021/03/24 11:26:04;;;;;;;20.08;10.82;;;;;;;10.89;46.54;96037.50;5047730;28;20017;-62
2021/03/24 11:28:35;;;;;;;13.38;10.07;;;;;;;10.99;47.07;96033.94;5034405;28;20033;-62
2021/03/24 11:31:04;;;;;;;14.48;9.93;;;;;;;11.25;46.46;96029.09;5033164;28;20033;-62
2021/03/24 11:33:41;;;;;;;14.02;10.93;;;;;;;11.44;45.21;96032.56;5032122;28;20514;-62
2021/03/24 11:36:22;;;;;;;16.33;10.88;;;;;;;11.61;45.37;96017.94;5032284;28;20067;-61
2021/03/24 11:39:03;;;;;;;14.65;10.48;;;;;;;11.54;47.13;96018.31;5032001;28;20033;-62
2021/03/24 11:41:33;;;;;;;14.52;9.75;;;;;;;10.38;45.84;95984.81;5032337;28;20034;-62
2021/03/24 11:44:10;;;;;;;23.65;11.20;;;;;;;10.78;45.94;96022.72;5030646;28;20037;-62
2021/03/24 11:46:41;;;;;;;12.35;9.45;;;;;;;10.90;45.13;96017.81;5032148;28;20045;-63
2021/03/24 11:49:27;;;;;;;13.88;10.13;;;;;;;11.02;44.97;96004.09;5034008;28;20104;-63
2021/03/24 11:52:02;;;;;;;16.45;10.55;;;;;;;11.38;44.45;96001.75;5031279;28;20088;-63
2021/03/24 11:54:37;;;;;;;14.90;10.10;;;;;;;11.66;44.20;96001.88;5031780;28;20045;-61
2021/03/24 11:57:11;;;;;;;15.73;9.60;;;;;;;11.89;44.15;96001.03;5031886;28;20513;-61
2021/03/24 11:59:49;;;;;;;11.15;8.32;;;;;;;11.50;44.01;95996.00;5031984;28;20040;-62
2021/03/24 12:02:21;;;;;;;14.10;9.38;;;;;;;11.72;43.67;95984.75;5031562;28;20116;-62
2021/03/24 12:04:52;;;;;;;10.65;7.70;;;;;;;10.88;43.42;95902.03;5030734;28;20553;-61
2021/03/24 12:07:32;;;;;;;13.32;8.68;;;;;;;11.57;43.20;95985.00;5033585;28;20029;-62
2021/03/24 12:10:18;;;;;;;12.93;7.78;;;;;;;11.97;42.18;95933.69;5031991;28;20107;-63